sensor_id;sensor_type;location;lat;lon;timestamp;P1;durP1;ratioP1;P2;durP2;ratioP2
71462;SDS011;59266;52.608;13.260;2023-05-07T00:00:14;18.05;;;9.23;;
71462;SDS011;59266;52.608;13.260;2023-05-07T00:02:41;20.10;;;11.02;;
71462;SDS011;59266;52.608;13.260;2023-05-07T00:05:09;19.27;;;10.82;;
71462;SDS011;59266;52.608;13.260;2023-05-07T00:07:36;22.85;;;11.63;;
71462;SDS011;59266;52.608;13.260;2023-05-07T00:10:03;19.20;;;11.48;;
71462;SDS011;59266;52.608;13.260;2023-05-07T00:12:30;20.77;;;10.38;;
71462;SDS011;59266;52.608;13.260;2023-05-07T00:15:02;19.75;;;10.93;;
71462;SDS011;59266;52.608;13.260;2023-05-07T00:17:30;19.42;;;11.13;;
71462;SDS011;59266;52.608;13.260;2023-05-07T00:19:57;19.23;;;11.02;;
71462;SDS011;59266;52.608;13.260;2023-05-07T00:22:25;21.85;;;11.07;;
71462;SDS011;59266;52.608;13.260;2023-05-07T00:24:56;20.08;;;10.32;;
71462;SDS011;59266;52.608;13.260;2023-05-07T00:27:22;21.33;;;11.32;;
71462;SDS011;59266;52.608;13.260;2023-05-07T00:29:50;18.25;;;10.98;;
71462;SDS011;59266;52.608;13.260;2023-05-07T00:32:17;22.75;;;11.80;;
71462;SDS011;59266;52.608;13.260;2023-05-07T00:34:45;19.70;;;10.15;;
71462;SDS011;59266;52.608;13.260;2023-05-07T00:37:11;20.40;;;10.45;;
71462;SDS011;59266;52.608;13.260;2023-05-07T00:39:38;19.13;;;10.80;;
71462;SDS011;59266;52.608;13.260;2023-05-07T00:42:05;21.60;;;11.07;;
71462;SDS011;59266;52.608;13.260;2023-05-07T00:44:31;22.83;;;10.65;;
71462;SDS011;59266;52.608;13.260;2023-05-07T00:46:58;21.27;;;10.80;;
71462;SDS011;59266;52.608;13.260;2023-05-07T00:49:34;18.92;;;10.82;;
71462;SDS011;59266;52.608;13.260;2023-05-07T00:52:06;21.83;;;10.93;;
71462;SDS011;59266;52.608;13.260;2023-05-07T00:54:35;19.30;;;10.82;;
71462;SDS011;59266;52.608;13.260;2023-05-07T00:57:02;18.30;;;10.27;;
71462;SDS011;59266;52.608;13.260;2023-05-07T00:59:33;18.23;;;10.18;;
71462;SDS011;59266;52.608;13.260;2023-05-07T01:02:00;23.88;;;10.93;;
71462;SDS011;59266;52.608;13.260;2023-05-07T01:04:27;19.83;;;10.23;;
71462;SDS011;59266;52.608;13.260;2023-05-07T01:06:55;20.35;;;11.00;;
71462;SDS011;59266;52.608;13.260;2023-05-07T01:09:26;18.38;;;10.40;;
71462;SDS011;59266;52.608;13.260;2023-05-07T01:11:54;22.10;;;10.73;;
71462;SDS011;59266;52.608;13.260;2023-05-07T01:14:24;19.38;;;10.23;;
71462;SDS011;59266;52.608;13.260;2023-05-07T01:16:52;19.77;;;10.77;;
71462;SDS011;59266;52.608;13.260;2023-05-07T01:19:19;18.63;;;9.95;;
71462;SDS011;59266;52.608;13.260;2023-05-07T01:21:46;18.90;;;10.13;;
71462;SDS011;59266;52.608;13.260;2023-05-07T01:24:21;21.38;;;10.73;;
71462;SDS011;59266;52.608;13.260;2023-05-07T01:26:48;17.60;;;9.95;;
71462;SDS011;59266;52.608;13.260;2023-05-07T01:29:16;17.85;;;10.43;;
71462;SDS011;59266;52.608;13.260;2023-05-07T01:31:45;20.83;;;10.25;;
71462;SDS011;59266;52.608;13.260;2023-05-07T01:34:14;17.27;;;9.98;;
71462;SDS011;59266;52.608;13.260;2023-05-07T01:36:43;20.70;;;10.75;;
71462;SDS011;59266;52.608;13.260;2023-05-07T01:39:10;16.90;;;9.90;;
71462;SDS011;59266;52.608;13.260;2023-05-07T01:41:38;21.10;;;10.52;;
71462;SDS011;59266;52.608;13.260;2023-05-07T01:44:05;18.95;;;10.77;;
71462;SDS011;59266;52.608;13.260;2023-05-07T01:46:32;19.88;;;10.10;;
71462;SDS011;59266;52.608;13.260;2023-05-07T01:48:59;19.15;;;9.35;;
71462;SDS011;59266;52.608;13.260;2023-05-07T01:51:27;17.25;;;9.45;;
71462;SDS011;59266;52.608;13.260;2023-05-07T01:53:54;18.48;;;10.23;;
71462;SDS011;59266;52.608;13.260;2023-05-07T01:56:24;20.35;;;10.05;;
71462;SDS011;59266;52.608;13.260;2023-05-07T01:58:51;23.30;;;11.20;;
71462;SDS011;59266;52.608;13.260;2023-05-07T02:01:21;19.27;;;10.07;;
71462;SDS011;59266;52.608;13.260;2023-05-07T02:03:48;18.13;;;9.93;;
71462;SDS011;59266;52.608;13.260;2023-05-07T02:06:16;17.98;;;9.30;;
71462;SDS011;59266;52.608;13.260;2023-05-07T02:08:42;17.00;;;9.48;;
71462;SDS011;59266;52.608;13.260;2023-05-07T02:11:09;16.63;;;9.25;;
71462;SDS011;59266;52.608;13.260;2023-05-07T02:13:36;17.75;;;9.55;;
71462;SDS011;59266;52.608;13.260;2023-05-07T02:16:03;17.20;;;9.75;;
71462;SDS011;59266;52.608;13.260;2023-05-07T02:18:33;15.77;;;9.23;;
71462;SDS011;59266;52.608;13.260;2023-05-07T02:20:59;16.83;;;9.07;;
71462;SDS011;59266;52.608;13.260;2023-05-07T02:23:27;16.40;;;8.90;;
71462;SDS011;59266;52.608;13.260;2023-05-07T02:25:54;17.85;;;10.05;;
71462;SDS011;59266;52.608;13.260;2023-05-07T02:28:20;20.98;;;9.38;;
71462;SDS011;59266;52.608;13.260;2023-05-07T02:30:47;15.23;;;9.05;;
71462;SDS011;59266;52.608;13.260;2023-05-07T02:33:14;15.48;;;9.30;;
71462;SDS011;59266;52.608;13.260;2023-05-07T02:35:43;15.85;;;8.77;;
71462;SDS011;59266;52.608;13.260;2023-05-07T02:38:10;18.00;;;9.07;;
71462;SDS011;59266;52.608;13.260;2023-05-07T02:40:37;17.00;;;8.70;;
71462;SDS011;59266;52.608;13.260;2023-05-07T02:43:08;17.58;;;9.48;;
71462;SDS011;59266;52.608;13.260;2023-05-07T02:45:35;17.45;;;9.30;;
71462;SDS011;59266;52.608;13.260;2023-05-07T02:48:04;14.95;;;8.45;;
71462;SDS011;59266;52.608;13.260;2023-05-07T02:50:32;16.77;;;8.90;;
71462;SDS011;59266;52.608;13.260;2023-05-07T02:53:00;18.65;;;8.90;;
71462;SDS011;59266;52.608;13.260;2023-05-07T02:55:27;18.33;;;8.90;;
71462;SDS011;59266;52.608;13.260;2023-05-07T02:57:56;15.18;;;8.27;;
71462;SDS011;59266;52.608;13.260;2023-05-07T03:00:24;17.20;;;8.70;;
71462;SDS011;59266;52.608;13.260;2023-05-07T03:02:51;16.63;;;8.05;;
71462;SDS011;59266;52.608;13.260;2023-05-07T03:05:18;16.95;;;8.23;;
71462;SDS011;59266;52.608;13.260;2023-05-07T03:07:47;14.18;;;8.23;;
71462;SDS011;59266;52.608;13.260;2023-05-07T03:10:17;13.85;;;7.30;;
71462;SDS011;59266;52.608;13.260;2023-05-07T03:12:44;15.95;;;7.85;;
71462;SDS011;59266;52.608;13.260;2023-05-07T03:15:11;14.05;;;7.80;;
71462;SDS011;59266;52.608;13.260;2023-05-07T03:17:41;13.77;;;7.93;;
71462;SDS011;59266;52.608;13.260;2023-05-07T03:20:08;17.33;;;7.65;;
71462;SDS011;59266;52.608;13.260;2023-05-07T03:22:36;15.23;;;7.32;;
71462;SDS011;59266;52.608;13.260;2023-05-07T03:25:03;12.27;;;6.70;;
71462;SDS011;59266;52.608;13.260;2023-05-07T03:27:32;15.70;;;7.60;;
71462;SDS011;59266;52.608;13.260;2023-05-07T03:29:59;13.07;;;7.40;;
71462;SDS011;59266;52.608;13.260;2023-05-07T03:32:26;14.48;;;7.85;;
71462;SDS011;59266;52.608;13.260;2023-05-07T03:34:54;16.55;;;8.00;;
71462;SDS011;59266;52.608;13.260;2023-05-07T03:37:24;18.58;;;7.90;;
71462;SDS011;59266;52.608;13.260;2023-05-07T03:39:52;16.00;;;8.02;;
71462;SDS011;59266;52.608;13.260;2023-05-07T03:42:19;14.88;;;7.47;;
71462;SDS011;59266;52.608;13.260;2023-05-07T03:44:47;15.07;;;7.68;;
71462;SDS011;59266;52.608;13.260;2023-05-07T03:47:14;13.57;;;7.30;;
71462;SDS011;59266;52.608;13.260;2023-05-07T03:49:41;14.93;;;7.88;;
71462;SDS011;59266;52.608;13.260;2023-05-07T03:52:07;14.15;;;7.45;;
71462;SDS011;59266;52.608;13.260;2023-05-07T03:54:37;14.20;;;7.78;;
71462;SDS011;59266;52.608;13.260;2023-05-07T03:57:04;15.20;;;7.50;;
71462;SDS011;59266;52.608;13.260;2023-05-07T03:59:31;11.05;;;6.60;;
71462;SDS011;59266;52.608;13.260;2023-05-07T04:01:58;15.75;;;6.78;;
71462;SDS011;59266;52.608;13.260;2023-05-07T04:04:30;14.32;;;6.78;;
71462;SDS011;59266;52.608;13.260;2023-05-07T04:06:59;14.13;;;7.13;;
71462;SDS011;59266;52.608;13.260;2023-05-07T04:09:26;12.48;;;6.72;;
71462;SDS011;59266;52.608;13.260;2023-05-07T04:11:53;13.60;;;6.82;;
71462;SDS011;59266;52.608;13.260;2023-05-07T04:14:19;13.52;;;7.20;;
71462;SDS011;59266;52.608;13.260;2023-05-07T04:16:48;12.95;;;6.63;;
71462;SDS011;59266;52.608;13.260;2023-05-07T04:19:15;12.27;;;6.38;;
71462;SDS011;59266;52.608;13.260;2023-05-07T04:21:42;13.73;;;7.07;;
71462;SDS011;59266;52.608;13.260;2023-05-07T04:24:09;13.23;;;6.60;;
71462;SDS011;59266;52.608;13.260;2023-05-07T04:26:35;13.52;;;7.00;;
71462;SDS011;59266;52.608;13.260;2023-05-07T04:29:02;14.52;;;6.93;;
71462;SDS011;59266;52.608;13.260;2023-05-07T04:31:29;14.90;;;7.05;;
71462;SDS011;59266;52.608;13.260;2023-05-07T04:33:58;13.00;;;6.80;;
71462;SDS011;59266;52.608;13.260;2023-05-07T04:36:27;16.08;;;6.70;;
71462;SDS011;59266;52.608;13.260;2023-05-07T04:38:55;12.65;;;6.10;;
71462;SDS011;59266;52.608;13.260;2023-05-07T04:41:22;12.35;;;6.68;;
71462;SDS011;59266;52.608;13.260;2023-05-07T04:43:48;12.40;;;6.60;;
71462;SDS011;59266;52.608;13.260;2023-05-07T04:46:15;13.75;;;6.97;;
71462;SDS011;59266;52.608;13.260;2023-05-07T04:48:42;11.40;;;6.70;;
71462;SDS011;59266;52.608;13.260;2023-05-07T04:51:09;12.93;;;6.72;;
71462;SDS011;59266;52.608;13.260;2023-05-07T04:53:37;13.05;;;6.55;;
71462;SDS011;59266;52.608;13.260;2023-05-07T04:56:05;11.88;;;6.10;;
71462;SDS011;59266;52.608;13.260;2023-05-07T04:58:32;13.40;;;7.35;;
71462;SDS011;59266;52.608;13.260;2023-05-07T05:00:59;18.15;;;5.88;;
71462;SDS011;59266;52.608;13.260;2023-05-07T05:03:28;12.48;;;6.55;;
71462;SDS011;59266;52.608;13.260;2023-05-07T05:05:58;12.80;;;7.45;;
71462;SDS011;59266;52.608;13.260;2023-05-07T05:08:29;15.32;;;6.00;;
71462;SDS011;59266;52.608;13.260;2023-05-07T05:10:56;11.80;;;5.68;;
71462;SDS011;59266;52.608;13.260;2023-05-07T05:13:25;13.48;;;6.40;;
71462;SDS011;59266;52.608;13.260;2023-05-07T05:15:57;12.95;;;6.60;;
71462;SDS011;59266;52.608;13.260;2023-05-07T05:18:24;12.63;;;6.55;;
71462;SDS011;59266;52.608;13.260;2023-05-07T05:20:51;13.15;;;6.07;;
71462;SDS011;59266;52.608;13.260;2023-05-07T05:23:18;13.55;;;6.45;;
71462;SDS011;59266;52.608;13.260;2023-05-07T05:25:46;13.52;;;6.25;;
71462;SDS011;59266;52.608;13.260;2023-05-07T05:28:15;11.30;;;5.90;;
71462;SDS011;59266;52.608;13.260;2023-05-07T05:30:42;12.18;;;5.88;;
71462;SDS011;59266;52.608;13.260;2023-05-07T05:33:09;12.50;;;6.05;;
71462;SDS011;59266;52.608;13.260;2023-05-07T05:35:37;11.55;;;6.15;;
71462;SDS011;59266;52.608;13.260;2023-05-07T05:38:04;12.98;;;7.07;;
71462;SDS011;59266;52.608;13.260;2023-05-07T05:40:31;13.35;;;6.07;;
71462;SDS011;59266;52.608;13.260;2023-05-07T05:42:59;10.27;;;5.45;;
71462;SDS011;59266;52.608;13.260;2023-05-07T05:45:26;11.25;;;5.38;;
71462;SDS011;59266;52.608;13.260;2023-05-07T05:50:24;10.88;;;5.45;;
71462;SDS011;59266;52.608;13.260;2023-05-07T05:52:52;11.82;;;5.45;;
71462;SDS011;59266;52.608;13.260;2023-05-07T05:55:18;10.75;;;5.38;;
71462;SDS011;59266;52.608;13.260;2023-05-07T05:57:46;10.95;;;5.60;;
71462;SDS011;59266;52.608;13.260;2023-05-07T06:00:14;9.70;;;5.10;;
71462;SDS011;59266;52.608;13.260;2023-05-07T06:02:42;11.63;;;5.22;;
71462;SDS011;59266;52.608;13.260;2023-05-07T06:05:12;10.93;;;5.45;;
71462;SDS011;59266;52.608;13.260;2023-05-07T06:07:38;11.25;;;5.63;;
71462;SDS011;59266;52.608;13.260;2023-05-07T06:10:05;10.73;;;5.18;;
71462;SDS011;59266;52.608;13.260;2023-05-07T06:12:32;12.20;;;5.57;;
71462;SDS011;59266;52.608;13.260;2023-05-07T06:14:59;12.90;;;5.28;;
71462;SDS011;59266;52.608;13.260;2023-05-07T06:17:25;12.75;;;5.45;;
71462;SDS011;59266;52.608;13.260;2023-05-07T06:19:52;10.20;;;5.03;;
71462;SDS011;59266;52.608;13.260;2023-05-07T06:22:20;9.68;;;5.70;;
71462;SDS011;59266;52.608;13.260;2023-05-07T06:24:46;11.18;;;5.53;;
71462;SDS011;59266;52.608;13.260;2023-05-07T06:27:15;9.82;;;4.97;;
71462;SDS011;59266;52.608;13.260;2023-05-07T06:29:42;11.65;;;4.82;;
71462;SDS011;59266;52.608;13.260;2023-05-07T06:32:09;10.57;;;5.05;;
71462;SDS011;59266;52.608;13.260;2023-05-07T06:34:37;9.27;;;4.90;;
71462;SDS011;59266;52.608;13.260;2023-05-07T06:37:05;10.32;;;5.07;;
71462;SDS011;59266;52.608;13.260;2023-05-07T06:39:32;8.45;;;4.72;;
71462;SDS011;59266;52.608;13.260;2023-05-07T06:42:00;10.90;;;5.25;;
71462;SDS011;59266;52.608;13.260;2023-05-07T06:44:28;8.98;;;4.82;;
71462;SDS011;59266;52.608;13.260;2023-05-07T06:46:54;8.95;;;4.57;;
71462;SDS011;59266;52.608;13.260;2023-05-07T06:49:21;8.23;;;4.25;;
71462;SDS011;59266;52.608;13.260;2023-05-07T06:51:48;9.80;;;4.55;;
71462;SDS011;59266;52.608;13.260;2023-05-07T06:54:14;9.35;;;4.30;;
71462;SDS011;59266;52.608;13.260;2023-05-07T06:56:43;8.60;;;4.35;;
71462;SDS011;59266;52.608;13.260;2023-05-07T06:59:10;8.70;;;4.28;;
71462;SDS011;59266;52.608;13.260;2023-05-07T07:01:39;10.05;;;5.28;;
71462;SDS011;59266;52.608;13.260;2023-05-07T07:04:06;8.75;;;4.40;;
71462;SDS011;59266;52.608;13.260;2023-05-07T07:06:34;9.38;;;4.82;;
71462;SDS011;59266;52.608;13.260;2023-05-07T07:09:01;9.38;;;4.80;;
71462;SDS011;59266;52.608;13.260;2023-05-07T07:11:29;10.20;;;4.28;;
71462;SDS011;59266;52.608;13.260;2023-05-07T07:13:56;9.05;;;4.63;;
71462;SDS011;59266;52.608;13.260;2023-05-07T07:18:56;10.32;;;5.50;;
71462;SDS011;59266;52.608;13.260;2023-05-07T07:21:22;7.55;;;3.85;;
71462;SDS011;59266;52.608;13.260;2023-05-07T07:23:49;8.68;;;3.88;;
71462;SDS011;59266;52.608;13.260;2023-05-07T07:26:17;10.18;;;4.07;;
71462;SDS011;59266;52.608;13.260;2023-05-07T07:28:45;7.00;;;3.75;;
71462;SDS011;59266;52.608;13.260;2023-05-07T07:31:13;7.38;;;3.70;;
71462;SDS011;59266;52.608;13.260;2023-05-07T07:33:40;7.55;;;3.40;;
71462;SDS011;59266;52.608;13.260;2023-05-07T07:36:09;6.90;;;3.60;;
71462;SDS011;59266;52.608;13.260;2023-05-07T07:38:35;8.23;;;3.20;;
71462;SDS011;59266;52.608;13.260;2023-05-07T07:41:02;7.53;;;3.70;;
71462;SDS011;59266;52.608;13.260;2023-05-07T07:43:29;6.60;;;3.20;;
71462;SDS011;59266;52.608;13.260;2023-05-07T07:45:56;7.05;;;3.03;;
71462;SDS011;59266;52.608;13.260;2023-05-07T07:48:22;7.25;;;3.17;;
71462;SDS011;59266;52.608;13.260;2023-05-07T07:50:49;7.25;;;3.47;;
71462;SDS011;59266;52.608;13.260;2023-05-07T07:53:18;6.50;;;2.90;;
71462;SDS011;59266;52.608;13.260;2023-05-07T07:55:45;5.97;;;2.92;;
71462;SDS011;59266;52.608;13.260;2023-05-07T07:58:13;7.82;;;2.90;;
71462;SDS011;59266;52.608;13.260;2023-05-07T08:00:41;6.10;;;2.70;;
71462;SDS011;59266;52.608;13.260;2023-05-07T08:03:09;7.18;;;2.83;;
71462;SDS011;59266;52.608;13.260;2023-05-07T08:05:40;7.40;;;2.63;;
71462;SDS011;59266;52.608;13.260;2023-05-07T08:08:09;6.60;;;2.90;;
71462;SDS011;59266;52.608;13.260;2023-05-07T08:10:36;6.30;;;2.80;;
71462;SDS011;59266;52.608;13.260;2023-05-07T08:13:05;7.20;;;2.90;;
71462;SDS011;59266;52.608;13.260;2023-05-07T08:15:32;8.43;;;2.33;;
71462;SDS011;59266;52.608;13.260;2023-05-07T08:17:58;7.72;;;2.70;;
71462;SDS011;59266;52.608;13.260;2023-05-07T08:20:26;6.85;;;2.58;;
71462;SDS011;59266;52.608;13.260;2023-05-07T08:22:54;8.10;;;2.92;;
71462;SDS011;59266;52.608;13.260;2023-05-07T08:25:22;6.43;;;2.80;;
71462;SDS011;59266;52.608;13.260;2023-05-07T08:27:49;6.18;;;2.80;;
71462;SDS011;59266;52.608;13.260;2023-05-07T08:30:15;6.15;;;2.60;;
71462;SDS011;59266;52.608;13.260;2023-05-07T08:32:42;6.43;;;2.90;;
71462;SDS011;59266;52.608;13.260;2023-05-07T08:35:10;6.70;;;2.30;;
71462;SDS011;59266;52.608;13.260;2023-05-07T08:37:36;5.70;;;2.63;;
71462;SDS011;59266;52.608;13.260;2023-05-07T08:40:03;6.55;;;2.13;;
71462;SDS011;59266;52.608;13.260;2023-05-07T08:45:12;6.95;;;3.00;;
71462;SDS011;59266;52.608;13.260;2023-05-07T08:47:43;5.72;;;2.45;;
71462;SDS011;59266;52.608;13.260;2023-05-07T08:50:13;6.53;;;2.40;;
71462;SDS011;59266;52.608;13.260;2023-05-07T08:52:41;6.05;;;2.30;;
71462;SDS011;59266;52.608;13.260;2023-05-07T08:55:09;6.03;;;2.45;;
71462;SDS011;59266;52.608;13.260;2023-05-07T08:57:40;5.63;;;2.40;;
71462;SDS011;59266;52.608;13.260;2023-05-07T09:00:08;6.25;;;2.50;;
71462;SDS011;59266;52.608;13.260;2023-05-07T09:02:37;8.52;;;2.60;;
71462;SDS011;59266;52.608;13.260;2023-05-07T09:05:04;7.78;;;2.50;;
71462;SDS011;59266;52.608;13.260;2023-05-07T09:07:33;6.07;;;2.70;;
71462;SDS011;59266;52.608;13.260;2023-05-07T09:10:03;7.10;;;2.97;;
71462;SDS011;59266;52.608;13.260;2023-05-07T09:12:32;5.95;;;2.67;;
71462;SDS011;59266;52.608;13.260;2023-05-07T09:14:58;6.50;;;2.65;;
71462;SDS011;59266;52.608;13.260;2023-05-07T09:17:25;8.75;;;2.70;;
71462;SDS011;59266;52.608;13.260;2023-05-07T09:19:52;8.32;;;2.70;;
71462;SDS011;59266;52.608;13.260;2023-05-07T09:22:19;9.90;;;2.78;;
71462;SDS011;59266;52.608;13.260;2023-05-07T09:24:51;5.93;;;2.50;;
71462;SDS011;59266;52.608;13.260;2023-05-07T09:27:18;7.13;;;2.40;;
71462;SDS011;59266;52.608;13.260;2023-05-07T09:29:48;8.82;;;2.78;;
71462;SDS011;59266;52.608;13.260;2023-05-07T09:32:15;7.97;;;2.60;;
71462;SDS011;59266;52.608;13.260;2023-05-07T09:34:43;9.75;;;2.63;;
71462;SDS011;59266;52.608;13.260;2023-05-07T09:37:12;8.88;;;2.75;;
71462;SDS011;59266;52.608;13.260;2023-05-07T09:39:42;6.43;;;2.78;;
71462;SDS011;59266;52.608;13.260;2023-05-07T09:42:12;5.80;;;2.40;;
71462;SDS011;59266;52.608;13.260;2023-05-07T09:44:45;6.53;;;2.40;;
71462;SDS011;59266;52.608;13.260;2023-05-07T09:47:13;5.85;;;2.13;;
71462;SDS011;59266;52.608;13.260;2023-05-07T09:49:48;7.00;;;2.30;;
71462;SDS011;59266;52.608;13.260;2023-05-07T09:52:14;5.40;;;2.15;;
71462;SDS011;59266;52.608;13.260;2023-05-07T09:54:42;8.07;;;2.50;;
71462;SDS011;59266;52.608;13.260;2023-05-07T09:57:10;8.05;;;2.85;;
71462;SDS011;59266;52.608;13.260;2023-05-07T09:59:43;6.97;;;2.60;;
71462;SDS011;59266;52.608;13.260;2023-05-07T10:02:10;5.38;;;2.30;;
71462;SDS011;59266;52.608;13.260;2023-05-07T10:04:38;4.47;;;2.10;;
71462;SDS011;59266;52.608;13.260;2023-05-07T10:07:11;5.20;;;2.30;;
71462;SDS011;59266;52.608;13.260;2023-05-07T10:09:41;5.22;;;2.00;;
71462;SDS011;59266;52.608;13.260;2023-05-07T10:12:10;7.10;;;2.60;;
71462;SDS011;59266;52.608;13.260;2023-05-07T10:14:37;6.75;;;2.38;;
71462;SDS011;59266;52.608;13.260;2023-05-07T10:17:04;5.88;;;2.30;;
71462;SDS011;59266;52.608;13.260;2023-05-07T10:19:33;7.13;;;2.50;;
71462;SDS011;59266;52.608;13.260;2023-05-07T10:22:03;7.63;;;2.08;;
71462;SDS011;59266;52.608;13.260;2023-05-07T10:24:35;5.30;;;2.40;;
71462;SDS011;59266;52.608;13.260;2023-05-07T10:27:08;6.40;;;2.33;;
71462;SDS011;59266;52.608;13.260;2023-05-07T10:29:39;5.90;;;2.25;;
71462;SDS011;59266;52.608;13.260;2023-05-07T10:34:43;4.93;;;2.05;;
71462;SDS011;59266;52.608;13.260;2023-05-07T10:37:13;4.90;;;2.20;;
71462;SDS011;59266;52.608;13.260;2023-05-07T10:39:41;5.45;;;2.28;;
71462;SDS011;59266;52.608;13.260;2023-05-07T10:42:11;4.90;;;2.22;;
71462;SDS011;59266;52.608;13.260;2023-05-07T10:44:39;5.00;;;2.08;;
71462;SDS011;59266;52.608;13.260;2023-05-07T10:47:09;7.13;;;2.00;;
71462;SDS011;59266;52.608;13.260;2023-05-07T10:52:18;4.43;;;1.80;;
71462;SDS011;59266;52.608;13.260;2023-05-07T10:54:47;5.70;;;1.95;;
71462;SDS011;59266;52.608;13.260;2023-05-07T10:57:33;5.13;;;2.10;;
71462;SDS011;59266;52.608;13.260;2023-05-07T11:00:03;5.47;;;1.80;;
71462;SDS011;59266;52.608;13.260;2023-05-07T11:03:13;5.85;;;2.22;;
71462;SDS011;59266;52.608;13.260;2023-05-07T11:05:34;5.53;;;2.10;;
71462;SDS011;59266;52.608;13.260;2023-05-07T11:08:08;5.80;;;1.80;;
71462;SDS011;59266;52.608;13.260;2023-05-07T11:10:51;4.88;;;1.80;;
71462;SDS011;59266;52.608;13.260;2023-05-07T11:16:17;4.15;;;1.77;;
71462;SDS011;59266;52.608;13.260;2023-05-07T11:18:48;5.53;;;1.67;;
71462;SDS011;59266;52.608;13.260;2023-05-07T11:21:37;5.70;;;1.70;;
71462;SDS011;59266;52.608;13.260;2023-05-07T11:24:07;5.25;;;1.73;;
71462;SDS011;59266;52.608;13.260;2023-05-07T11:26:42;6.18;;;2.00;;
71462;SDS011;59266;52.608;13.260;2023-05-07T11:29:17;4.57;;;1.65;;
71462;SDS011;59266;52.608;13.260;2023-05-07T11:31:49;5.53;;;1.90;;
71462;SDS011;59266;52.608;13.260;2023-05-07T11:34:20;4.90;;;1.80;;
71462;SDS011;59266;52.608;13.260;2023-05-07T11:36:51;5.00;;;1.83;;
71462;SDS011;59266;52.608;13.260;2023-05-07T11:39:22;5.15;;;2.00;;
71462;SDS011;59266;52.608;13.260;2023-05-07T11:41:50;4.90;;;1.73;;
71462;SDS011;59266;52.608;13.260;2023-05-07T11:44:19;4.47;;;1.90;;
71462;SDS011;59266;52.608;13.260;2023-05-07T11:46:47;6.13;;;1.63;;
71462;SDS011;59266;52.608;13.260;2023-05-07T11:49:17;6.43;;;1.60;;
71462;SDS011;59266;52.608;13.260;2023-05-07T11:51:47;5.10;;;1.88;;
71462;SDS011;59266;52.608;13.260;2023-05-07T11:54:21;6.82;;;1.73;;
71462;SDS011;59266;52.608;13.260;2023-05-07T11:56:49;7.07;;;2.05;;
71462;SDS011;59266;52.608;13.260;2023-05-07T11:59:17;5.68;;;1.80;;
71462;SDS011;59266;52.608;13.260;2023-05-07T12:01:49;4.70;;;1.90;;
71462;SDS011;59266;52.608;13.260;2023-05-07T12:04:20;4.72;;;1.85;;
71462;SDS011;59266;52.608;13.260;2023-05-07T12:06:47;5.75;;;2.10;;
71462;SDS011;59266;52.608;13.260;2023-05-07T12:09:16;5.55;;;1.90;;
71462;SDS011;59266;52.608;13.260;2023-05-07T12:11:45;4.90;;;1.83;;
71462;SDS011;59266;52.608;13.260;2023-05-07T12:14:12;6.78;;;1.60;;
71462;SDS011;59266;52.608;13.260;2023-05-07T12:16:42;6.65;;;2.00;;
71462;SDS011;59266;52.608;13.260;2023-05-07T12:19:11;4.50;;;1.80;;
71462;SDS011;59266;52.608;13.260;2023-05-07T12:21:41;5.18;;;1.83;;
71462;SDS011;59266;52.608;13.260;2023-05-07T12:24:10;5.32;;;1.90;;
71462;SDS011;59266;52.608;13.260;2023-05-07T12:26:39;4.35;;;1.60;;
71462;SDS011;59266;52.608;13.260;2023-05-07T12:29:07;6.10;;;2.00;;
71462;SDS011;59266;52.608;13.260;2023-05-07T12:31:39;5.43;;;1.55;;
71462;SDS011;59266;52.608;13.260;2023-05-07T12:34:10;3.47;;;1.50;;
71462;SDS011;59266;52.608;13.260;2023-05-07T12:36:38;6.95;;;1.80;;
71462;SDS011;59266;52.608;13.260;2023-05-07T12:39:07;5.30;;;2.08;;
71462;SDS011;59266;52.608;13.260;2023-05-07T12:41:56;4.55;;;1.65;;
71462;SDS011;59266;52.608;13.260;2023-05-07T12:44:25;3.30;;;1.27;;
71462;SDS011;59266;52.608;13.260;2023-05-07T12:46:56;4.82;;;1.80;;
71462;SDS011;59266;52.608;13.260;2023-05-07T12:49:23;4.40;;;1.60;;
71462;SDS011;59266;52.608;13.260;2023-05-07T12:51:51;7.00;;;1.77;;
71462;SDS011;59266;52.608;13.260;2023-05-07T12:54:28;4.75;;;1.55;;
71462;SDS011;59266;52.608;13.260;2023-05-07T12:57:01;3.72;;;1.42;;
71462;SDS011;59266;52.608;13.260;2023-05-07T12:59:36;3.55;;;1.58;;
71462;SDS011;59266;52.608;13.260;2023-05-07T13:02:05;7.13;;;1.73;;
71462;SDS011;59266;52.608;13.260;2023-05-07T13:04:32;6.20;;;1.77;;
71462;SDS011;59266;52.608;13.260;2023-05-07T13:07:00;7.50;;;1.83;;
71462;SDS011;59266;52.608;13.260;2023-05-07T13:09:29;4.22;;;1.60;;
71462;SDS011;59266;52.608;13.260;2023-05-07T13:11:57;5.80;;;1.52;;
71462;SDS011;59266;52.608;13.260;2023-05-07T13:14:27;3.85;;;1.58;;
71462;SDS011;59266;52.608;13.260;2023-05-07T13:16:54;4.93;;;1.88;;
71462;SDS011;59266;52.608;13.260;2023-05-07T13:19:22;5.15;;;1.40;;
71462;SDS011;59266;52.608;13.260;2023-05-07T13:21:49;4.25;;;1.67;;
71462;SDS011;59266;52.608;13.260;2023-05-07T13:24:16;4.00;;;1.50;;
71462;SDS011;59266;52.608;13.260;2023-05-07T13:26:43;4.55;;;1.42;;
71462;SDS011;59266;52.608;13.260;2023-05-07T13:29:11;5.85;;;1.60;;
71462;SDS011;59266;52.608;13.260;2023-05-07T13:31:38;4.25;;;1.60;;
71462;SDS011;59266;52.608;13.260;2023-05-07T13:34:09;4.88;;;1.63;;
71462;SDS011;59266;52.608;13.260;2023-05-07T13:36:39;6.40;;;1.48;;
71462;SDS011;59266;52.608;13.260;2023-05-07T13:39:07;4.47;;;1.60;;
71462;SDS011;59266;52.608;13.260;2023-05-07T13:41:35;4.35;;;1.40;;
71462;SDS011;59266;52.608;13.260;2023-05-07T13:44:01;5.80;;;1.60;;
71462;SDS011;59266;52.608;13.260;2023-05-07T13:46:28;4.15;;;1.55;;
71462;SDS011;59266;52.608;13.260;2023-05-07T13:48:56;5.75;;;1.70;;
71462;SDS011;59266;52.608;13.260;2023-05-07T13:51:25;4.50;;;1.42;;
71462;SDS011;59266;52.608;13.260;2023-05-07T13:53:52;4.65;;;1.75;;
71462;SDS011;59266;52.608;13.260;2023-05-07T13:56:21;6.13;;;1.80;;
71462;SDS011;59266;52.608;13.260;2023-05-07T13:58:50;5.75;;;1.80;;
71462;SDS011;59266;52.608;13.260;2023-05-07T14:01:25;5.32;;;1.70;;
71462;SDS011;59266;52.608;13.260;2023-05-07T14:03:53;4.93;;;1.52;;
71462;SDS011;59266;52.608;13.260;2023-05-07T14:06:19;6.80;;;1.90;;
71462;SDS011;59266;52.608;13.260;2023-05-07T14:08:46;6.38;;;1.67;;
71462;SDS011;59266;52.608;13.260;2023-05-07T14:11:14;4.80;;;1.70;;
71462;SDS011;59266;52.608;13.260;2023-05-07T14:13:42;4.72;;;1.65;;
71462;SDS011;59266;52.608;13.260;2023-05-07T14:16:20;4.65;;;1.75;;
71462;SDS011;59266;52.608;13.260;2023-05-07T14:18:49;4.70;;;1.75;;
71462;SDS011;59266;52.608;13.260;2023-05-07T14:21:17;5.28;;;1.70;;
71462;SDS011;59266;52.608;13.260;2023-05-07T14:23:45;5.93;;;1.70;;
71462;SDS011;59266;52.608;13.260;2023-05-07T14:26:13;4.53;;;1.40;;
71462;SDS011;59266;52.608;13.260;2023-05-07T14:28:40;6.28;;;1.77;;
71462;SDS011;59266;52.608;13.260;2023-05-07T14:31:12;4.80;;;1.55;;
71462;SDS011;59266;52.608;13.260;2023-05-07T14:33:39;5.30;;;1.65;;
71462;SDS011;59266;52.608;13.260;2023-05-07T14:36:07;3.85;;;1.60;;
71462;SDS011;59266;52.608;13.260;2023-05-07T14:38:34;4.38;;;1.50;;
71462;SDS011;59266;52.608;13.260;2023-05-07T14:41:02;5.00;;;1.70;;
71462;SDS011;59266;52.608;13.260;2023-05-07T14:43:32;3.95;;;1.50;;
71462;SDS011;59266;52.608;13.260;2023-05-07T14:45:58;5.82;;;1.80;;
71462;SDS011;59266;52.608;13.260;2023-05-07T14:48:26;6.30;;;1.65;;